Akron, OH (44301)

1:12 PM EST on December 08, 2016 (GMT -0500)
Firestone Park | | Change Station

Elev 1115 ft 41.05 °N, 81.52 °W | Updated 23 seconds ago

Light Snow
Light Snow
25.4 °F
Feels Like 25 °F
N
3.0
Wind Variable Wind from South

Today
High -- | Low -- °F
--% Chance of Precip.
Yesterday
High -- | Low -- °F
Precip. -- in
Pressure 30.14 in
Visibility 4.0 miles
Clouds Overcast 2400 ft
Windchill 25 °F
Dew Point 18 °F
Humidity 75%
Rainfall 0.00 in
Snow Depth Not available.
7:38 AM 4:57 PM
Waxing Gibbous, 65% visible
METAR KAKR 081754Z AUTO 28010G19KT 4SM -SN OVC024 M03/M08 A3011 RMK AO2 SNB1655 SLP207 P0000 60000 T10331083 11017 21039 58000
Pressure 30.14 in
Visibility 4.0 miles
Clouds Overcast 2400 ft
Windchill 25 °F
Dew Point 18 °F
Humidity 75%
Rainfall 0.00 in
Snow Depth Not available.
7:38 AM 4:57 PM
Waxing Gibbous, 65% visible
METAR KAKR 081754Z AUTO 28010G19KT 4SM -SN OVC024 M03/M08 A3011 RMK AO2 SNB1655 SLP207 P0000 60000 T10331083 11017 21039 58000

10-Day Weather Forecast

Almanac

Astronomy

Dec. 08, 2016 Rise Set
Actual Time
Civil Twilight
Nautical Twilight
Astronomical Twilight
Moon
Length of Visible Light
Length of Day
Tomorrow will be .
, % of the Moon is Illuminated

Today's Extremes

State Highs State Lows

Community

WunderPhotos

Upload Photos

1,956,277 photos uploaded!

WunderBlog® & News

Nearby

Air Quality

  Air Quality AQ Index Pollutant
Not available.

Snow Depth

Station Depth Elevation

Earthquake Activity

City Distance Mag. Time & Date
Minimum magnitude displayed is 2.5.

Coastal Water Temperatures

Place Temperature

Stations

Nearby Weather Stations

Station Location Temp. Windchill Dew Point Humidity Wind Precip. Elev Updated Type
                   

Watches & Warnings

There are currently no watches in effect.